• Join FlightAware (Why Join?)
  • Login
  • US Flag 
01:12AM EDT


 

Airport Tracker/Info


-or-


 

Live Flight TrackerFlight Track Log ✈ AMF1026 ✈ 03-May-2013 ✈ KALB - KCVG

Flight Track Log - Related Links

Times and Time Zones

All times are in EDT time to prevent confusion due to time zone crossing. See the AMF1026 flight status page for this flight to view local times or setup timezone preferences in your user account.

Time Position Orientation Groundspeed Altitude Reporting Facility
EDT Latitude Longitude Course Direction KTS MPH feet Rate Location/Type
09:03PM 42.7339 -73.8081 210° Southwest 133 153 1,000  Level Boston Center
09:05PM 42.6856 -73.8467 210° Southwest 197 227 3,300 1,680 Climbing Boston Center
09:05PM 42.6706 -73.8744 234° Southwest 206 237 4,000 1,800 Climbing Boston Center
09:06PM 42.6556 -73.9108 241° Southwest 213 245 5,100 1,860 Climbing Boston Center
09:06PM 42.6489 -73.9419 254° West 221 254 5,900 1,620 Climbing Boston Center
09:07PM 42.6394 -74.0233 261° West 226 260 7,400 1,500 Climbing Boston Center
09:08PM 42.6406 -74.0942 271° West 219 252 9,000 1,500 Climbing Boston Center
09:09PM 42.6289 -74.1842 260° West 213 245 10,500 1,260 Climbing Boston Center
09:10PM 42.6047 -74.2483 243° Southwest 218 251 11,600 1,200 Climbing Boston Center
09:11PM 42.5806 -74.3350 249° West 229 264 12,900 1,200 Climbing Boston Center
09:12PM 42.5625 -74.4078 251° West 229 264 14,100 1,200 Climbing Boston Center
09:13PM 42.5569 -74.4978 265° West 224 258 15,400 900 Climbing Boston Center
09:14PM 42.5575 -74.5767 271° West 224 258 16,000 300 Climbing Boston Center
09:15PM 42.5575 -74.6808 270° West 246 283 16,100  Climbing Boston Center
09:16PM 42.5514 -74.7767 265° West 269 310 16,000 -60 Descending Boston Center
09:17PM 42.5533 -74.8867 271° West 280 322 16,000  Level Boston Center
09:18PM 42.5281 -74.9869 251° West 285 328 16,000  Level Boston Center
09:19PM 42.5008 -75.0872 250° West 285 328 16,000  Level Boston Center
09:20PM 42.4733 -75.1875 250° West 290 334 16,000  Level Boston Center
09:21PM 42.4519 -75.2964 255° West 290 334 16,000  Level Boston Center
09:23PM 42.3628 -75.5331 243° Southwest 293 337 16,000  Level New York Center
09:24PM 42.3278 -75.6286 244° Southwest 293 337 16,000  Level New York Center
09:25PM 42.2944 -75.7300 246° West 293 337 16,000  Level New York Center
09:26PM 42.2569 -75.8278 243° Southwest 293 337 16,000  Level New York Center
09:27PM 42.2236 -75.9261 245° Southwest 293 337 16,000  Level New York Center
09:28PM 42.1881 -76.0242 244° Southwest 293 337 16,000  Level New York Center
09:29PM 42.1547 -76.1219 245° Southwest 293 337 16,000  Level New York Center
09:30PM 42.1231 -76.2203 247° West 293 337 16,000  Level New York Center
09:31PM 42.0914 -76.3211 247° West 293 337 16,000 -60 Level New York Center
09:32PM 42.0578 -76.4186 245° Southwest 293 337 15,900 -60 Descending New York Center
09:33PM 42.0281 -76.5167 248° West 293 337 15,900  Level New York Center
09:34PM 41.9894 -76.6250 244° Southwest 293 337 15,900  Level New York Center
09:35PM 41.9575 -76.7225 246° West 293 337 15,900  Level New York Center
09:36PM 41.9233 -76.8197 245° Southwest 293 337 15,900  Level New York Center
09:37PM 41.8894 -76.9142 244° Southwest 293 337 15,900  Level New York Center
09:40PM 41.8064 -77.1425 244° Southwest 282 325 16,000  Climbing Cleveland Center
09:41PM 41.7736 -77.2392 246° West 282 325 16,000  Level Cleveland Center
09:42PM 41.7411 -77.3325 245° Southwest 287 330 16,000  Level Cleveland Center
09:43PM 41.7083 -77.4289 246° West 287 330 16,000  Level Cleveland Center
09:44PM 41.6672 -77.5367 243° Southwest 287 330 16,000  Level Cleveland Center
09:45PM 41.6364 -77.6325 247° West 287 330 16,000  Level Cleveland Center
09:46PM 41.6033 -77.7283 245° Southwest 287 330 16,000  Level Cleveland Center
09:47PM 41.5703 -77.8242 245° Southwest 287 330 16,000  Level Cleveland Center
09:48PM 41.5372 -77.9200 245° Southwest 287 330 16,000  Level Cleveland Center
09:49PM 41.5039 -78.0128 244° Southwest 287 330 16,000  Level Cleveland Center
09:50PM 41.4767 -78.1025 248° West 287 330 16,000  Level Cleveland Center
09:51PM 41.4475 -78.1981 248° West 287 330 16,000  Level Cleveland Center
09:52PM 41.4161 -78.2961 247° West 282 325 16,000  Level Cleveland Center
09:53PM 41.3886 -78.3911 249° West 282 325 16,000  Level Cleveland Center
09:54PM 41.3617 -78.5028 252° West 282 325 16,000  Level Cleveland Center
09:55PM 41.3319 -78.5978 247° West 287 330 16,000  Level Cleveland Center
09:56PM 41.3025 -78.6953 248° West 287 330 16,000  Level Cleveland Center
09:57PM 41.2747 -78.7928 249° West 287 330 16,000  Level Cleveland Center
09:58PM 41.2450 -78.8875 247° West 287 330 16,000  Level Cleveland Center
09:59PM 41.2172 -78.9822 249° West 287 330 16,000  Level Cleveland Center
10:00PM 41.1872 -79.0767 247° West 282 325 16,000  Level Cleveland Center
10:01PM 41.1569 -79.1711 247° West 282 325 16,000  Level Cleveland Center
10:02PM 41.1269 -79.2656 247° West 282 325 16,000 -60 Level Cleveland Center
10:03PM 41.0967 -79.3625 248° West 282 325 15,900 -60 Descending Cleveland Center
10:04PM 41.0644 -79.4567 246° West 282 325 15,900  Level Cleveland Center
10:05PM 41.0361 -79.5508 248° West 277 319 15,900  Level Cleveland Center
10:06PM 41.0056 -79.6450 247° West 277 319 15,900  Level Cleveland Center
10:07PM 40.9750 -79.7361 246° West 277 319 15,900  Level Cleveland Center
10:08PM 40.9444 -79.8328 247° West 277 319 15,900  Level Cleveland Center
10:09PM 40.9136 -79.9264 246° West 277 319 15,900  Level Cleveland Center
10:10PM 40.8831 -80.0200 247° West 277 319 15,900  Level Cleveland Center
10:11PM 40.8542 -80.1164 248° West 277 319 15,900  Level Cleveland Center
10:12PM 40.8253 -80.2072 247° West 277 319 15,900  Level Cleveland Center
10:13PM 40.7903 -80.2978 243° Southwest 277 319 15,900  Level Cleveland Center
10:14PM 40.7444 -80.3775 233° Southwest 283 326 15,900  Level Cleveland Center
10:15PM 40.6967 -80.4597 233° Southwest 283 326 15,900  Level Cleveland Center
10:16PM 40.6508 -80.5419 234° Southwest 283 326 15,900  Level Cleveland Center
10:17PM 40.6092 -80.6242 236° Southwest 283 326 15,900  Level Cleveland Center
10:18PM 40.5675 -80.6978 233° Southwest 272 313 15,900  Level Cleveland Center
10:19PM 40.5278 -80.7825 238° Southwest 272 313 15,900  Level Cleveland Center
10:20PM 40.4858 -80.8642 236° Southwest 272 313 16,000  Climbing Cleveland Center
10:21PM 40.4458 -80.9486 238° Southwest 277 319 16,000  Level Cleveland Center
10:22PM 40.4061 -81.0303 237° Southwest 277 319 16,000  Level Cleveland Center
10:23PM 40.3619 -81.1144 235° Southwest 282 325 16,000  Level Cleveland Center
10:24PM 40.3197 -81.1958 236° Southwest 282 325 16,000  Level Cleveland Center
10:26PM 40.2200 -81.3856 235° Southwest 274 315 16,000  Level Indianapolis Center
10:27PM 40.1758 -81.4658 234° Southwest 271 312 16,000  Level Indianapolis Center
10:28PM 40.1306 -81.5475 234° Southwest 273 314 16,000  Level Indianapolis Center
10:29PM 40.0864 -81.6272 234° Southwest 270 311 16,000  Level Indianapolis Center
10:30PM 40.0553 -81.7200 246° West 274 315 16,000  Level Indianapolis Center
10:31PM 40.0256 -81.8150 248° West 276 318 16,000  Level Indianapolis Center
10:32PM 39.9953 -81.9086 247° West 278 320 16,000  Level Indianapolis Center
10:33PM 39.9658 -82.0000 247° West 272 313 16,000  Level Indianapolis Center
10:34PM 39.9372 -82.0922 248° West 273 314 16,000 -60 Level Indianapolis Center
10:35PM 39.9072 -82.1842 247° West 273 314 15,900 -60 Descending Indianapolis Center
10:36PM 39.8778 -82.2747 247° West 270 311 15,900  Level Indianapolis Center
10:37PM 39.8478 -82.3664 247° West 272 313 15,900  Level Indianapolis Center
10:38PM 39.8208 -82.4569 249° West 268 308 15,900  Level Indianapolis Center
10:39PM 39.7919 -82.5486 248° West 270 311 15,900  Level Indianapolis Center
10:41PM 39.7539 -82.6517 244° Southwest 269 310 15,900  Level Indianapolis Center
10:42PM 39.7192 -82.7406 243° Southwest 273 314 15,900  Level Indianapolis Center
10:43PM 39.6875 -82.8292 245° Southwest 270 311 15,900  Level Indianapolis Center
10:44PM 39.6553 -82.9200 245° Southwest 273 314 15,900  Level Indianapolis Center
10:45PM 39.6203 -83.0097 243° Southwest 275 316 15,900  Level Indianapolis Center
10:46PM 39.5867 -83.1000 244° Southwest 275 316 15,900 -180 Level Indianapolis Center
10:47PM 39.5522 -83.1911 244° Southwest 277 319 15,600 -600 Descending Indianapolis Center
10:47PM 39.5308 -83.2514 245° Southwest 288 331 15,000 -900 Descending Indianapolis Center
10:48PM 39.5189 -83.2886 247° West 288 331 14,700 -900 Descending Indianapolis Center
10:48PM 39.5006 -83.3533 250° West 286 329 14,100 -1,020 Descending Indianapolis Center
10:49PM 39.4906 -83.3853 248° West 283 326 13,700 -1,020 Descending Indianapolis Center
10:49PM 39.4728 -83.4500 250° West 279 321 13,100 -1,020 Descending Indianapolis Center
10:50PM 39.4619 -83.4797 245° Southwest 280 322 12,700 -1,140 Descending Indianapolis Center
10:50PM 39.4411 -83.5406 246° West 276 318 12,000 -1,020 Descending Indianapolis Center
10:51PM 39.4303 -83.5717 246° West 277 319 11,700 -1,020 Descending Indianapolis Center
10:51PM 39.4114 -83.6289 247° West 273 314 11,000 -1,140 Descending Indianapolis Center
10:52PM 39.3992 -83.6631 245° Southwest 276 318 10,600 -1,140 Descending Indianapolis Center
10:52PM 39.3794 -83.7194 246° West 275 316 9,900 -1,020 Descending Indianapolis Center
10:53PM 39.3675 -83.7522 245° Southwest 272 313 9,600 -960 Descending Indianapolis Center
10:54PM 39.3381 -83.8375 246° West 262 302 8,600 -780 Descending Indianapolis Center
10:55PM 39.3228 -83.9242 257° West 252 290 8,100 -300 Descending Indianapolis Center
10:56PM 39.3172 -84.0136 265° West 247 284 8,100  Level Indianapolis Center
10:57PM 39.3072 -84.1078 262° West 258 297 8,100 -120 Level Indianapolis Center
10:58PM 39.2992 -84.2044 264° West 266 306 7,900 -600 Descending Indianapolis Center
10:59PM 39.2914 -84.2942 264° West 255 293 7,000 -900 Descending Indianapolis Center
11:00PM 39.2869 -84.3792 266° West 240 276 6,100 -540 Descending Indianapolis Center
11:01PM 39.2817 -84.4639 265° West 236 272 6,000  Descending Indianapolis Center
11:02PM 39.2767 -84.5464 266° West 231 266 6,100 -300 Climbing Indianapolis Center
11:03PM 39.2675 -84.6203 261° West 212 244 5,400 -840 Descending Indianapolis Center
11:04PM 39.2333 -84.6500 214° Southwest 170 196 4,700 -840 Descending Cincinnati TRACON
11:05PM 39.2000 -84.6833 218° Southwest 114 131 4,000 -960 Descending Cincinnati TRACON
11:06PM 39.1833 -84.6667 142° Southeast 103 119 2,800 -780 Descending Cincinnati TRACON
11:07PM 39.1500 -84.6667 180° South 102 117 2,500 -420 Descending Cincinnati TRACON
11:08PM 39.1167 -84.6667 180° South 104 120 2,000 -540 Descending Cincinnati TRACON
11:09PM 39.1000 -84.6667 180° South 95 109 1,500 -540 Descending Cincinnati TRACON